sensor_id;sensor_type;location;lat;lon;timestamp;pressure;altitude;pressure_sealevel;temperature;humidity
6464;BME280;3265;42.694;23.282;2023-04-02T00:01:15;93776.31;;;8.71;81.08
6464;BME280;3265;42.694;23.282;2023-04-02T00:04:16;93775.50;;;8.82;81.00
6464;BME280;3265;42.694;23.282;2023-04-02T00:06:48;93777.28;;;8.81;81.15
6464;BME280;3265;42.694;23.282;2023-04-02T00:09:29;93769.31;;;8.83;80.83
6464;BME280;3265;42.694;23.282;2023-04-02T00:11:58;93768.97;;;8.79;80.87
6464;BME280;3265;42.694;23.282;2023-04-02T00:14:46;93771.09;;;8.82;80.73
6464;BME280;3265;42.694;23.282;2023-04-02T00:17:13;93767.16;;;8.80;80.97
6464;BME280;3265;42.694;23.282;2023-04-02T00:19:47;93763.53;;;8.81;80.04
6464;BME280;3265;42.694;23.282;2023-04-02T00:22:17;93771.09;;;8.82;80.23
6464;BME280;3265;42.694;23.282;2023-04-02T00:24:49;93771.66;;;8.84;79.43
6464;BME280;3265;42.694;23.282;2023-04-02T00:27:18;93762.09;;;8.85;79.49
6464;BME280;3265;42.694;23.282;2023-04-02T00:29:46;93759.72;;;8.83;79.44
6464;BME280;3265;42.694;23.282;2023-04-02T00:32:19;93747.69;;;8.77;79.16
6464;BME280;3265;42.694;23.282;2023-04-02T00:34:47;93762.19;;;8.90;79.32
6464;BME280;3265;42.694;23.282;2023-04-02T00:37:16;93762.28;;;8.95;78.43
6464;BME280;3265;42.694;23.282;2023-04-02T00:39:49;93764.84;;;8.95;78.78
6464;BME280;3265;42.694;23.282;2023-04-02T00:42:18;93754.81;;;8.98;77.22
6464;BME280;3265;42.694;23.282;2023-04-02T00:44:47;93749.53;;;9.05;77.58
6464;BME280;3265;42.694;23.282;2023-04-02T00:47:19;93752.19;;;9.10;77.40
6464;BME280;3265;42.694;23.282;2023-04-02T00:49:48;93761.56;;;9.11;77.78
6464;BME280;3265;42.694;23.282;2023-04-02T00:52:18;93755.03;;;9.08;77.62
6464;BME280;3265;42.694;23.282;2023-04-02T00:54:49;93759.97;;;9.10;77.84
6464;BME280;3265;42.694;23.282;2023-04-02T00:57:21;93764.94;;;9.11;77.57
6464;BME280;3265;42.694;23.282;2023-04-02T00:59:55;93757.84;;;9.07;76.73
6464;BME280;3265;42.694;23.282;2023-04-02T01:02:26;93764.63;;;9.08;76.81
6464;BME280;3265;42.694;23.282;2023-04-02T01:04:55;93761.69;;;9.04;76.99
6464;BME280;3265;42.694;23.282;2023-04-02T01:07:32;93764.94;;;9.11;77.17
6464;BME280;3265;42.694;23.282;2023-04-02T01:10:21;93761.31;;;9.12;77.12
6464;BME280;3265;42.694;23.282;2023-04-02T01:13:02;93759.75;;;9.11;77.07
6464;BME280;3265;42.694;23.282;2023-04-02T01:15:38;93764.94;;;9.11;77.37
6464;BME280;3265;42.694;23.282;2023-04-02T01:18:20;93761.00;;;9.09;76.70
6464;BME280;3265;42.694;23.282;2023-04-02T01:24:08;93769.09;;;9.12;76.87
6464;BME280;3265;42.694;23.282;2023-04-02T01:26:45;93768.28;;;9.12;76.68
6464;BME280;3265;42.694;23.282;2023-04-02T01:29:15;93761.00;;;9.09;76.77
6464;BME280;3265;42.694;23.282;2023-04-02T01:31:45;93760.31;;;9.13;75.83
6464;BME280;3265;42.694;23.282;2023-04-02T01:34:14;93763.91;;;9.12;75.82
6464;BME280;3265;42.694;23.282;2023-04-02T01:36:50;93772.16;;;9.09;75.67
6464;BME280;3265;42.694;23.282;2023-04-02T01:39:38;93772.63;;;8.95;77.41
6464;BME280;3265;42.694;23.282;2023-04-02T01:42:13;93772.53;;;8.90;77.23
6464;BME280;3265;42.694;23.282;2023-04-02T01:44:48;93770.66;;;8.85;77.93
6464;BME280;3265;42.694;23.282;2023-04-02T01:47:18;93774.25;;;8.84;78.76
6464;BME280;3265;42.694;23.282;2023-04-02T01:53:09;93755.25;;;8.67;84.35
6464;BME280;3265;42.694;23.282;2023-04-02T01:55:40;93755.72;;;8.41;85.80
6464;BME280;3265;42.694;23.282;2023-04-02T01:58:08;93759.13;;;8.30;86.17
6464;BME280;3265;42.694;23.282;2023-04-02T02:00:40;93749.53;;;8.19;86.98
6464;BME280;3265;42.694;23.282;2023-04-02T02:03:10;93752.91;;;8.08;87.67
6464;BME280;3265;42.694;23.282;2023-04-02T02:05:38;93748.38;;;7.91;88.77
6464;BME280;3265;42.694;23.282;2023-04-02T02:08:10;93750.63;;;7.88;89.86
6464;BME280;3265;42.694;23.282;2023-04-02T02:10:42;93745.44;;;7.76;89.90
6464;BME280;3265;42.694;23.282;2023-04-02T02:13:13;93748.91;;;7.59;91.60
6464;BME280;3265;42.694;23.282;2023-04-02T02:15:41;93746.53;;;7.57;91.72
6464;BME280;3265;42.694;23.282;2023-04-02T02:18:10;93756.88;;;7.57;91.83
6464;BME280;3265;42.694;23.282;2023-04-02T02:20:38;93751.97;;;7.67;91.60
6464;BME280;3265;42.694;23.282;2023-04-02T02:23:06;93754.72;;;7.54;92.34
6464;BME280;3265;42.694;23.282;2023-04-02T02:25:34;93752.84;;;7.61;92.03
6464;BME280;3265;42.694;23.282;2023-04-02T02:28:05;93752.50;;;7.58;91.85
6464;BME280;3265;42.694;23.282;2023-04-02T02:30:35;93758.81;;;7.62;91.49
6464;BME280;3265;42.694;23.282;2023-04-02T02:33:09;93750.47;;;7.60;90.71
6464;BME280;3265;42.694;23.282;2023-04-02T02:35:43;93760.38;;;7.63;89.28
6464;BME280;3265;42.694;23.282;2023-04-02T02:38:27;93759.91;;;7.54;89.02
6464;BME280;3265;42.694;23.282;2023-04-02T02:41:00;93762.34;;;7.49;88.83
6464;BME280;3265;42.694;23.282;2023-04-02T02:43:52;93759.34;;;7.52;87.74
6464;BME280;3265;42.694;23.282;2023-04-02T02:46:28;93750.59;;;7.53;86.06
6464;BME280;3265;42.694;23.282;2023-04-02T02:48:59;93757.81;;;7.74;84.62
6464;BME280;3265;42.694;23.282;2023-04-02T02:51:38;93749.84;;;7.76;84.65
6464;BME280;3265;42.694;23.282;2023-04-02T02:54:06;93757.94;;;7.91;84.33
6464;BME280;3265;42.694;23.282;2023-04-02T02:56:37;93739.97;;;7.96;83.17
6464;BME280;3265;42.694;23.282;2023-04-02T02:59:07;93755.59;;;8.01;82.42
6464;BME280;3265;42.694;23.282;2023-04-02T03:01:35;93750.53;;;8.06;81.81
6464;BME280;3265;42.694;23.282;2023-04-02T03:04:04;93747.59;;;8.14;81.63
6464;BME280;3265;42.694;23.282;2023-04-02T03:06:31;93750.53;;;8.18;81.14
6464;BME280;3265;42.694;23.282;2023-04-02T03:09:03;93755.97;;;8.28;81.15
6464;BME280;3265;42.694;23.282;2023-04-02T03:11:39;93760.00;;;8.35;80.17
6464;BME280;3265;42.694;23.282;2023-04-02T03:14:17;93757.19;;;8.37;79.96
6464;BME280;3265;42.694;23.282;2023-04-02T03:16:48;93766.31;;;8.39;79.67
6464;BME280;3265;42.694;23.282;2023-04-02T03:19:27;93763.84;;;8.44;79.83
6464;BME280;3265;42.694;23.282;2023-04-02T03:21:56;93769.66;;;8.51;78.87
6464;BME280;3265;42.694;23.282;2023-04-02T03:24:33;93772.38;;;8.57;79.38
6464;BME280;3265;42.694;23.282;2023-04-02T03:27:05;93766.16;;;8.57;81.42
6464;BME280;3265;42.694;23.282;2023-04-02T03:29:39;93766.97;;;8.46;82.62
6464;BME280;3265;42.694;23.282;2023-04-02T03:32:13;93765.06;;;8.19;84.03
6464;BME280;3265;42.694;23.282;2023-04-02T03:34:47;93768.09;;;8.16;84.48
6464;BME280;3265;42.694;23.282;2023-04-02T03:37:18;93772.38;;;8.10;85.01
6464;BME280;3265;42.694;23.282;2023-04-02T03:39:51;93762.22;;;8.09;86.51
6464;BME280;3265;42.694;23.282;2023-04-02T03:42:23;93759.19;;;8.00;85.59
6464;BME280;3265;42.694;23.282;2023-04-02T03:44:54;93766.03;;;8.06;84.10
6464;BME280;3265;42.694;23.282;2023-04-02T03:47:28;93765.84;;;8.08;84.74
6464;BME280;3265;42.694;23.282;2023-04-02T03:50:02;93766.72;;;8.02;84.02
6464;BME280;3265;42.694;23.282;2023-04-02T03:52:34;93759.97;;;8.00;83.47
6464;BME280;3265;42.694;23.282;2023-04-02T03:55:10;93765.41;;;8.11;82.63
6464;BME280;3265;42.694;23.282;2023-04-02T03:57:44;93767.53;;;8.14;80.48
6464;BME280;3265;42.694;23.282;2023-04-02T04:00:15;93771.34;;;8.23;80.33
6464;BME280;3265;42.694;23.282;2023-04-02T04:02:49;93765.72;;;8.26;80.29
6464;BME280;3265;42.694;23.282;2023-04-02T04:05:23;93769.09;;;8.26;80.72
6464;BME280;3265;42.694;23.282;2023-04-02T04:07:53;93767.19;;;8.22;82.99
6464;BME280;3265;42.694;23.282;2023-04-02T04:10:24;93769.53;;;8.23;83.70
6464;BME280;3265;42.694;23.282;2023-04-02T04:12:53;93766.03;;;7.94;85.11
6464;BME280;3265;42.694;23.282;2023-04-02T04:15:24;93780.03;;;8.05;85.40
6464;BME280;3265;42.694;23.282;2023-04-02T04:17:58;93787.28;;;7.96;86.32
6464;BME280;3265;42.694;23.282;2023-04-02T04:20:33;93787.19;;;7.91;86.14
6464;BME280;3265;42.694;23.282;2023-04-02T04:23:10;93791.25;;;7.87;87.05
6464;BME280;3265;42.694;23.282;2023-04-02T04:25:44;93792.94;;;7.93;87.17
6464;BME280;3265;42.694;23.282;2023-04-02T04:28:25;93796.63;;;7.86;87.55
6464;BME280;3265;42.694;23.282;2023-04-02T04:30:57;93785.16;;;7.82;87.79
6464;BME280;3265;42.694;23.282;2023-04-02T04:33:30;93798.28;;;7.80;88.06
6464;BME280;3265;42.694;23.282;2023-04-02T04:36:16;93802.19;;;7.71;88.28
6464;BME280;3265;42.694;23.282;2023-04-02T04:38:52;93799.69;;;7.65;88.21
6464;BME280;3265;42.694;23.282;2023-04-02T04:41:26;93796.88;;;7.55;89.26
6464;BME280;3265;42.694;23.282;2023-04-02T04:43:57;93806.47;;;7.36;90.55
6464;BME280;3265;42.694;23.282;2023-04-02T04:46:29;93807.56;;;7.28;90.81
6464;BME280;3265;42.694;23.282;2023-04-02T04:49:03;93801.59;;;7.28;91.17
6464;BME280;3265;42.694;23.282;2023-04-02T04:51:36;93791.28;;;7.28;91.13
6464;BME280;3265;42.694;23.282;2023-04-02T04:54:04;93798.91;;;7.23;91.48
6464;BME280;3265;42.694;23.282;2023-04-02T04:56:31;93808.56;;;7.27;91.66
6464;BME280;3265;42.694;23.282;2023-04-02T04:59:01;93812.19;;;7.26;91.49
6464;BME280;3265;42.694;23.282;2023-04-02T05:01:34;93808.66;;;7.21;92.01
6464;BME280;3265;42.694;23.282;2023-04-02T05:04:05;93810.47;;;7.20;92.22
6464;BME280;3265;42.694;23.282;2023-04-02T05:06:42;93796.50;;;7.10;92.60
6464;BME280;3265;42.694;23.282;2023-04-02T05:09:23;93810.53;;;7.14;92.95
6464;BME280;3265;42.694;23.282;2023-04-02T05:12:02;93819.00;;;7.21;92.95
6464;BME280;3265;42.694;23.282;2023-04-02T05:14:35;93813.59;;;7.22;93.13
6464;BME280;3265;42.694;23.282;2023-04-02T05:17:07;93819.34;;;7.24;92.45
6464;BME280;3265;42.694;23.282;2023-04-02T05:19:39;93804.72;;;7.18;92.64
6464;BME280;3265;42.694;23.282;2023-04-02T05:22:19;93826.31;;;7.24;92.85
6464;BME280;3265;42.694;23.282;2023-04-02T05:24:56;93818.56;;;7.24;92.44
6464;BME280;3265;42.694;23.282;2023-04-02T05:27:32;93822.50;;;7.26;92.70
6464;BME280;3265;42.694;23.282;2023-04-02T05:30:08;93816.97;;;7.23;93.71
6464;BME280;3265;42.694;23.282;2023-04-02T05:32:42;93828.81;;;7.30;92.78
6464;BME280;3265;42.694;23.282;2023-04-02T05:35:16;93838.81;;;7.27;92.97
6464;BME280;3265;42.694;23.282;2023-04-02T05:37:46;93805.97;;;6.98;93.54
6464;BME280;3265;42.694;23.282;2023-04-02T05:40:26;93834.72;;;7.19;93.06
6464;BME280;3265;42.694;23.282;2023-04-02T05:43:08;93821.88;;;7.13;92.75
6464;BME280;3265;42.694;23.282;2023-04-02T05:45:37;93816.56;;;7.08;93.01
6464;BME280;3265;42.694;23.282;2023-04-02T05:48:15;93791.09;;;6.93;93.23
6464;BME280;3265;42.694;23.282;2023-04-02T05:50:45;93832.06;;;7.26;92.57
6464;BME280;3265;42.694;23.282;2023-04-02T05:53:18;93801.13;;;7.19;91.42
6464;BME280;3265;42.694;23.282;2023-04-02T05:55:52;93814.16;;;7.24;91.51
6464;BME280;3265;42.694;23.282;2023-04-02T05:58:26;93857.00;;;7.50;91.85
6464;BME280;3265;42.694;23.282;2023-04-02T06:01:03;93851.97;;;7.55;92.32
6464;BME280;3265;42.694;23.282;2023-04-02T06:03:38;93837.25;;;7.56;92.62
6464;BME280;3265;42.694;23.282;2023-04-02T06:06:14;93836.44;;;7.55;92.34
6464;BME280;3265;42.694;23.282;2023-04-02T06:08:50;93822.84;;;7.60;91.62
6464;BME280;3265;42.694;23.282;2023-04-02T06:11:22;93839.22;;;7.83;91.35
6464;BME280;3265;42.694;23.282;2023-04-02T06:13:51;93849.28;;;8.03;89.95
6464;BME280;3265;42.694;23.282;2023-04-02T06:16:19;93852.78;;;8.09;89.90
6464;BME280;3265;42.694;23.282;2023-04-02T06:18:50;93821.28;;;8.00;89.31
6464;BME280;3265;42.694;23.282;2023-04-02T06:21:19;93854.19;;;8.34;89.27
6464;BME280;3265;42.694;23.282;2023-04-02T06:23:50;93832.72;;;8.34;88.79
6464;BME280;3265;42.694;23.282;2023-04-02T06:26:25;93852.66;;;8.57;89.39
6464;BME280;3265;42.694;23.282;2023-04-02T06:28:56;93842.97;;;8.64;88.46
6464;BME280;3265;42.694;23.282;2023-04-02T06:31:29;93857.03;;;8.79;88.23
6464;BME280;3265;42.694;23.282;2023-04-02T06:33:59;93851.59;;;8.92;88.68
6464;BME280;3265;42.694;23.282;2023-04-02T06:36:27;93842.72;;;8.88;88.05
6464;BME280;3265;42.694;23.282;2023-04-02T06:39:00;93847.09;;;8.99;88.71
6464;BME280;3265;42.694;23.282;2023-04-02T06:41:29;93848.66;;;9.00;88.60
6464;BME280;3265;42.694;23.282;2023-04-02T06:43:58;93826.84;;;8.96;88.90
6464;BME280;3265;42.694;23.282;2023-04-02T06:46:30;93852.25;;;9.23;87.46
6464;BME280;3265;42.694;23.282;2023-04-02T06:49:04;93854.72;;;9.29;86.85
6464;BME280;3265;42.694;23.282;2023-04-02T06:51:35;93868.56;;;9.35;86.75
6464;BME280;3265;42.694;23.282;2023-04-02T06:54:04;93850.38;;;9.46;86.50
6464;BME280;3265;42.694;23.282;2023-04-02T06:56:39;93859.47;;;9.60;85.33
6464;BME280;3265;42.694;23.282;2023-04-02T06:59:07;93868.22;;;9.71;86.20
6464;BME280;3265;42.694;23.282;2023-04-02T07:01:37;93873.91;;;9.85;84.06
6464;BME280;3265;42.694;23.282;2023-04-02T07:04:08;93851.25;;;9.80;82.85
6464;BME280;3265;42.694;23.282;2023-04-02T07:06:36;93868.59;;;10.08;78.75
6464;BME280;3265;42.694;23.282;2023-04-02T07:09:05;93853.81;;;10.08;76.70
6464;BME280;3265;42.694;23.282;2023-04-02T07:11:32;93883.22;;;10.42;75.14
6464;BME280;3265;42.694;23.282;2023-04-02T07:13:59;93888.66;;;10.57;74.02
6464;BME280;3265;42.694;23.282;2023-04-02T07:16:28;93877.97;;;10.70;73.14
6464;BME280;3265;42.694;23.282;2023-04-02T07:18:56;93875.44;;;10.75;72.54
6464;BME280;3265;42.694;23.282;2023-04-02T07:21:24;93889.84;;;10.83;73.33
6464;BME280;3265;42.694;23.282;2023-04-02T07:23:51;93894.81;;;10.85;72.07
6464;BME280;3265;42.694;23.282;2023-04-02T07:26:21;93897.09;;;10.81;72.22
6464;BME280;3265;42.694;23.282;2023-04-02T07:28:49;93896.28;;;10.80;72.78
6464;BME280;3265;42.694;23.282;2023-04-02T07:31:18;93907.56;;;10.86;71.33
6464;BME280;3265;42.694;23.282;2023-04-02T07:33:46;93907.56;;;10.86;71.29
6464;BME280;3265;42.694;23.282;2023-04-02T07:36:14;93898.25;;;10.90;70.85
6464;BME280;3265;42.694;23.282;2023-04-02T07:38:42;93881.44;;;10.76;71.88
6464;BME280;3265;42.694;23.282;2023-04-02T07:41:09;93897.22;;;10.91;70.82
6464;BME280;3265;42.694;23.282;2023-04-02T07:43:38;93910.22;;;10.91;71.24
6464;BME280;3265;42.694;23.282;2023-04-02T07:46:05;93899.97;;;11.01;71.16
6464;BME280;3265;42.694;23.282;2023-04-02T07:48:32;93889.47;;;11.13;70.99
6464;BME280;3265;42.694;23.282;2023-04-02T07:50:59;93901.66;;;11.29;70.45
6464;BME280;3265;42.694;23.282;2023-04-02T07:53:31;93899.91;;;11.34;69.29
6464;BME280;3265;42.694;23.282;2023-04-02T07:55:59;93902.59;;;11.39;68.71
6464;BME280;3265;42.694;23.282;2023-04-02T07:58:49;93905.97;;;11.62;68.35
6464;BME280;3265;42.694;23.282;2023-04-02T08:01:30;93891.16;;;11.62;67.64
6464;BME280;3265;42.694;23.282;2023-04-02T08:04:00;93906.38;;;11.70;67.34
6464;BME280;3265;42.694;23.282;2023-04-02T08:06:28;93906.56;;;11.69;66.84
6464;BME280;3265;42.694;23.282;2023-04-02T08:08:55;93909.31;;;11.79;65.88
6464;BME280;3265;42.694;23.282;2023-04-02T08:11:22;93915.06;;;11.81;66.76
6464;BME280;3265;42.694;23.282;2023-04-02T08:13:51;93906.72;;;11.79;66.98
6464;BME280;3265;42.694;23.282;2023-04-02T08:16:18;93908.03;;;11.81;67.29
6464;BME280;3265;42.694;23.282;2023-04-02T08:18:45;93916.69;;;11.87;66.91
6464;BME280;3265;42.694;23.282;2023-04-02T08:21:15;93916.88;;;12.02;67.36
6464;BME280;3265;42.694;23.282;2023-04-02T08:23:42;93910.38;;;12.05;66.42
6464;BME280;3265;42.694;23.282;2023-04-02T08:26:09;93920.78;;;12.26;67.91
6464;BME280;3265;42.694;23.282;2023-04-02T08:28:36;93929.47;;;12.37;67.77
6464;BME280;3265;42.694;23.282;2023-04-02T08:31:04;93922.72;;;12.41;68.01
6464;BME280;3265;42.694;23.282;2023-04-02T08:33:33;93923.31;;;12.48;68.38
6464;BME280;3265;42.694;23.282;2023-04-02T08:36:00;93919.03;;;12.64;67.43
6464;BME280;3265;42.694;23.282;2023-04-02T08:38:27;93929.22;;;12.70;67.44
6464;BME280;3265;42.694;23.282;2023-04-02T08:40:58;93923.78;;;12.72;66.19
6464;BME280;3265;42.694;23.282;2023-04-02T08:43:50;93939.16;;;12.73;65.77
6464;BME280;3265;42.694;23.282;2023-04-02T08:46:24;93915.44;;;12.70;66.34
6464;BME280;3265;42.694;23.282;2023-04-02T08:48:59;93931.97;;;12.85;66.12
6464;BME280;3265;42.694;23.282;2023-04-02T08:51:30;93936.22;;;12.96;66.49
6464;BME280;3265;42.694;23.282;2023-04-02T08:54:00;93935.28;;;13.07;65.81
6464;BME280;3265;42.694;23.282;2023-04-02T08:56:32;93931.72;;;13.19;63.92
6464;BME280;3265;42.694;23.282;2023-04-02T08:59:07;93923.97;;;13.34;62.30
6464;BME280;3265;42.694;23.282;2023-04-02T09:01:44;93918.47;;;13.30;63.43
6464;BME280;3265;42.694;23.282;2023-04-02T09:04:17;93920.91;;;13.47;64.62
6464;BME280;3265;42.694;23.282;2023-04-02T09:06:46;93933.00;;;13.68;64.57
6464;BME280;3265;42.694;23.282;2023-04-02T09:09:16;93924.16;;;13.74;59.75
6464;BME280;3265;42.694;23.282;2023-04-02T09:11:49;93913.19;;;13.67;59.17
6464;BME280;3265;42.694;23.282;2023-04-02T09:14:20;93929.47;;;13.94;59.18
6464;BME280;3265;42.694;23.282;2023-04-02T09:16:53;93910.72;;;14.12;60.33
6464;BME280;3265;42.694;23.282;2023-04-02T09:19:22;93927.31;;;14.48;60.98
6464;BME280;3265;42.694;23.282;2023-04-02T09:21:59;93923.63;;;14.64;60.24
6464;BME280;3265;42.694;23.282;2023-04-02T09:24:30;93941.97;;;14.74;58.70
6464;BME280;3265;42.694;23.282;2023-04-02T09:26:57;93939.59;;;14.73;57.09
6464;BME280;3265;42.694;23.282;2023-04-02T09:29:42;93937.00;;;14.68;59.01
6464;BME280;3265;42.694;23.282;2023-04-02T09:32:23;93930.19;;;14.62;59.91
6464;BME280;3265;42.694;23.282;2023-04-02T09:35:08;93932.00;;;14.61;59.24
6464;BME280;3265;42.694;23.282;2023-04-02T09:37:37;93926.53;;;14.73;57.48
6464;BME280;3265;42.694;23.282;2023-04-02T09:40:32;93925.19;;;15.16;56.35
6464;BME280;3265;42.694;23.282;2023-04-02T09:43:10;93911.59;;;15.14;57.11
6464;BME280;3265;42.694;23.282;2023-04-02T09:45:42;93912.91;;;15.01;57.81
6464;BME280;3265;42.694;23.282;2023-04-02T09:48:22;93926.25;;;15.05;56.30
6464;BME280;3265;42.694;23.282;2023-04-02T09:51:08;93911.88;;;14.82;54.45
6464;BME280;3265;42.694;23.282;2023-04-02T09:53:38;93919.69;;;14.52;54.51
6464;BME280;3265;42.694;23.282;2023-04-02T09:56:08;93914.47;;;14.42;55.16
6464;BME280;3265;42.694;23.282;2023-04-02T09:58:35;93887.81;;;14.40;54.21
6464;BME280;3265;42.694;23.282;2023-04-02T10:01:03;93885.69;;;14.52;55.28
6464;BME280;3265;42.694;23.282;2023-04-02T10:03:34;93917.63;;;14.94;53.67
6464;BME280;3265;42.694;23.282;2023-04-02T10:06:07;93889.88;;;14.98;53.40
6464;BME280;3265;42.694;23.282;2023-04-02T10:08:36;93895.88;;;15.04;52.85
6464;BME280;3265;42.694;23.282;2023-04-02T10:11:07;93872.09;;;14.95;54.47
6464;BME280;3265;42.694;23.282;2023-04-02T10:13:42;93889.34;;;15.16;56.19
6464;BME280;3265;42.694;23.282;2023-04-02T10:16:14;93898.44;;;15.59;57.70
6464;BME280;3265;42.694;23.282;2023-04-02T10:18:48;93890.28;;;16.20;66.04
6464;BME280;3265;42.694;23.282;2023-04-02T10:21:18;93896.81;;;16.71;56.46
6464;BME280;3265;42.694;23.282;2023-04-02T10:23:47;93896.44;;;17.17;55.01
6464;BME280;3265;42.694;23.282;2023-04-02T10:26:27;93894.06;;;17.44;53.39
6464;BME280;3265;42.694;23.282;2023-04-02T10:29:25;93896.25;;;17.84;52.21
6464;BME280;3265;42.694;23.282;2023-04-02T10:31:59;93887.94;;;18.20;51.26
6464;BME280;3265;42.694;23.282;2023-04-02T10:34:33;93912.28;;;18.49;50.24
6464;BME280;3265;42.694;23.282;2023-04-02T10:37:16;93899.66;;;18.27;49.26
6464;BME280;3265;42.694;23.282;2023-04-02T10:39:49;93901.53;;;18.27;48.54
6464;BME280;3265;42.694;23.282;2023-04-02T10:42:25;93909.66;;;18.49;48.56
6464;BME280;3265;42.694;23.282;2023-04-02T10:45:01;93911.19;;;18.87;49.12
6464;BME280;3265;42.694;23.282;2023-04-02T10:47:36;93904.94;;;19.15;47.56
6464;BME280;3265;42.694;23.282;2023-04-02T10:50:24;93913.75;;;19.24;46.87
6464;BME280;3265;42.694;23.282;2023-04-02T10:52:58;93906.38;;;19.08;47.20
6464;BME280;3265;42.694;23.282;2023-04-02T10:55:32;93902.13;;;19.25;45.75
6464;BME280;3265;42.694;23.282;2023-04-02T10:58:06;93903.91;;;19.30;46.18
6464;BME280;3265;42.694;23.282;2023-04-02T11:00:36;93898.69;;;19.11;46.20
6464;BME280;3265;42.694;23.282;2023-04-02T11:03:12;93893.91;;;19.13;46.56
6464;BME280;3265;42.694;23.282;2023-04-02T11:05:43;93896.53;;;19.13;45.72
6464;BME280;3265;42.694;23.282;2023-04-02T11:08:16;93892.38;;;19.26;45.15
6464;BME280;3265;42.694;23.282;2023-04-02T11:10:48;93904.28;;;19.37;44.65
6464;BME280;3265;42.694;23.282;2023-04-02T11:13:22;93891.78;;;19.48;43.48
6464;BME280;3265;42.694;23.282;2023-04-02T11:15:51;93901.84;;;19.59;43.48
6464;BME280;3265;42.694;23.282;2023-04-02T11:18:26;93895.56;;;19.55;43.71
6464;BME280;3265;42.694;23.282;2023-04-02T11:21:04;93904.66;;;19.63;42.53
6464;BME280;3265;42.694;23.282;2023-04-02T11:23:37;93894.19;;;19.71;42.50
6464;BME280;3265;42.694;23.282;2023-04-02T11:29:29;93895.47;;;20.28;41.26
6464;BME280;3265;42.694;23.282;2023-04-02T11:32:26;93896.97;;;20.57;40.47
6464;BME280;3265;42.694;23.282;2023-04-02T11:37:54;93898.72;;;19.71;40.07
6464;BME280;3265;42.694;23.282;2023-04-02T11:40:46;93884.13;;;19.60;41.71
6464;BME280;3265;42.694;23.282;2023-04-02T11:43:48;93879.88;;;19.91;42.04
6464;BME280;3265;42.694;23.282;2023-04-02T11:49:39;93886.56;;;19.97;41.10
6464;BME280;3265;42.694;23.282;2023-04-02T11:52:24;93878.09;;;19.87;40.68
6464;BME280;3265;42.694;23.282;2023-04-02T11:55:19;93880.25;;;19.71;41.76
6464;BME280;3265;42.694;23.282;2023-04-02T11:58:24;93865.81;;;20.18;40.58
6464;BME280;3265;42.694;23.282;2023-04-02T12:04:45;93880.88;;;20.17;39.86
6464;BME280;3265;42.694;23.282;2023-04-02T12:07:40;93880.59;;;20.19;40.46
6464;BME280;3265;42.694;23.282;2023-04-02T12:10:19;93871.69;;;20.64;39.80
6464;BME280;3265;42.694;23.282;2023-04-02T12:12:47;93883.84;;;21.10;38.04
6464;BME280;3265;42.694;23.282;2023-04-02T12:15:41;93872.84;;;21.16;37.17
6464;BME280;3265;42.694;23.282;2023-04-02T12:18:13;93886.50;;;21.40;37.18
6464;BME280;3265;42.694;23.282;2023-04-02T12:20:47;93882.16;;;21.75;36.27
6464;BME280;3265;42.694;23.282;2023-04-02T12:23:17;93874.53;;;22.22;35.21
6464;BME280;3265;42.694;23.282;2023-04-02T12:25:53;93879.53;;;22.49;35.58
6464;BME280;3265;42.694;23.282;2023-04-02T12:28:21;93887.66;;;23.04;33.77
6464;BME280;3265;42.694;23.282;2023-04-02T12:30:48;93896.81;;;23.41;32.20
6464;BME280;3265;42.694;23.282;2023-04-02T12:33:26;93894.63;;;23.43;32.64
6464;BME280;3265;42.694;23.282;2023-04-02T12:35:57;93881.06;;;23.18;32.12
6464;BME280;3265;42.694;23.282;2023-04-02T12:38:27;93881.75;;;22.64;32.74
6464;BME280;3265;42.694;23.282;2023-04-02T12:40:55;93867.00;;;21.98;34.32
6464;BME280;3265;42.694;23.282;2023-04-02T12:43:24;93877.44;;;22.12;34.40
6464;BME280;3265;42.694;23.282;2023-04-02T12:45:52;93871.53;;;22.15;33.85
6464;BME280;3265;42.694;23.282;2023-04-02T12:50:47;93869.50;;;22.03;33.65
6464;BME280;3265;42.694;23.282;2023-04-02T12:53:21;93852.72;;;22.25;33.24
6464;BME280;3265;42.694;23.282;2023-04-02T12:55:51;93851.78;;;23.06;33.15
6464;BME280;3265;42.694;23.282;2023-04-02T12:58:27;93851.41;;;24.18;31.76
6464;BME280;3265;42.694;23.282;2023-04-02T13:01:09;93866.44;;;25.29;30.58
6464;BME280;3265;42.694;23.282;2023-04-02T13:03:37;93855.13;;;25.32;27.96
6464;BME280;3265;42.694;23.282;2023-04-02T13:06:17;93862.16;;;24.63;28.58
6464;BME280;3265;42.694;23.282;2023-04-02T13:08:47;93859.56;;;24.54;29.36
6464;BME280;3265;42.694;23.282;2023-04-02T13:11:14;93863.63;;;24.81;28.08
6464;BME280;3265;42.694;23.282;2023-04-02T13:13:43;93870.56;;;24.65;28.51
6464;BME280;3265;42.694;23.282;2023-04-02T13:19:20;93870.59;;;23.86;29.14
6464;BME280;3265;42.694;23.282;2023-04-02T13:21:47;93861.81;;;23.94;29.51
6464;BME280;3265;42.694;23.282;2023-04-02T13:24:18;93851.47;;;24.01;28.85
6464;BME280;3265;42.694;23.282;2023-04-02T13:26:46;93849.94;;;23.91;30.42
6464;BME280;3265;42.694;23.282;2023-04-02T13:29:19;93860.66;;;24.12;29.61
6464;BME280;3265;42.694;23.282;2023-04-02T13:31:47;93851.94;;;24.53;27.49
6464;BME280;3265;42.694;23.282;2023-04-02T13:34:14;93860.28;;;25.17;27.37
6464;BME280;3265;42.694;23.282;2023-04-02T13:36:42;93869.38;;;24.83;26.55
6464;BME280;3265;42.694;23.282;2023-04-02T13:39:11;93851.66;;;24.66;26.24
6464;BME280;3265;42.694;23.282;2023-04-02T13:41:42;93850.91;;;24.87;26.97
6464;BME280;3265;42.694;23.282;2023-04-02T13:44:21;93841.94;;;24.91;26.49
6464;BME280;3265;42.694;23.282;2023-04-02T13:46:48;93846.03;;;25.21;26.10
6464;BME280;3265;42.694;23.282;2023-04-02T13:49:16;93838.31;;;24.54;26.52
6464;BME280;3265;42.694;23.282;2023-04-02T13:51:47;93850.56;;;23.59;27.41
6464;BME280;3265;42.694;23.282;2023-04-02T13:54:18;93854.78;;;22.79;28.59
6464;BME280;3265;42.694;23.282;2023-04-02T13:56:48;93840.47;;;21.81;29.33
6464;BME280;3265;42.694;23.282;2023-04-02T13:59:16;93844.16;;;20.79;31.25
6464;BME280;3265;42.694;23.282;2023-04-02T14:01:45;93831.94;;;20.25;32.11
6464;BME280;3265;42.694;23.282;2023-04-02T14:04:16;93829.34;;;19.84;33.07
6464;BME280;3265;42.694;23.282;2023-04-02T14:09:53;93823.84;;;19.12;35.38
6464;BME280;3265;42.694;23.282;2023-04-02T14:12:34;93831.28;;;19.10;35.25
6464;BME280;3265;42.694;23.282;2023-04-02T14:15:18;93832.59;;;18.94;35.74
6464;BME280;3265;42.694;23.282;2023-04-02T14:18:00;93806.50;;;18.65;36.09